Time;durP1;ratioP1;P1;durP2;ratioP2;P2;SDS_P1;SDS_P2;PMS_P1;PMS_P2;Temp;Humidity;BMP_temperature;BMP_pressure;BME280_temperature;BME280_humidity;BME280_pressure;Samples;Min_cycle;Max_cycle;Signal;HPM_P1;HPM_P2
2021/09/17 00:01:35;;;;;;;5.83;5.43;;;17.00;99.90;;;;;;4992297;28;20251;-69
2021/09/17 00:04:01;;;;;;;6.60;6.00;;;16.90;99.90;;;;;;4991819;28;20180;-66
2021/09/17 00:06:26;;;;;;;6.50;6.00;;;16.90;99.90;;;;;;4992326;28;20235;-66
2021/09/17 00:08:52;;;;;;;6.70;6.30;;;16.90;99.90;;;;;;4991664;28;20218;-66
2021/09/17 00:11:18;;;;;;;7.53;6.83;;;16.90;99.90;;;;;;4974983;28;20211;-65
2021/09/17 00:13:44;;;;;;;6.33;5.83;;;17.00;99.90;;;;;;4991867;28;20266;-65
2021/09/17 00:16:10;;;;;;;6.90;6.50;;;16.90;99.90;;;;;;4992528;28;20228;-65
2021/09/17 00:18:35;;;;;;;6.63;6.03;;;16.90;99.90;;;;;;4991884;28;20497;-69
2021/09/17 00:21:01;;;;;;;8.00;6.80;;;16.90;99.90;;;;;;4992161;28;20175;-66
2021/09/17 00:23:27;;;;;;;7.23;6.70;;;16.90;99.90;;;;;;4992513;28;20191;-66
2021/09/17 00:25:53;;;;;;;6.77;6.37;;;16.80;99.90;;;;;;4974339;28;20180;-66
2021/09/17 00:28:18;;;;;;;7.53;7.03;;;16.80;99.90;;;;;;4978730;28;20419;-66
2021/09/17 00:30:45;;;;;;;7.23;6.63;;;16.80;99.90;;;;;;4995285;28;20215;-65
2021/09/17 00:33:10;;;;;;;7.20;6.70;;;16.80;99.90;;;;;;4995789;28;20588;-66
2021/09/17 00:35:36;;;;;;;6.83;6.23;;;16.70;99.90;;;;;;4995330;28;20453;-69
2021/09/17 00:38:04;;;;;;;6.07;5.67;;;16.70;99.90;;;;;;4995095;28;20239;-66
2021/09/17 00:40:30;;;;;;;9.40;6.60;;;16.70;99.90;;;;;;4995995;28;20184;-66
2021/09/17 00:42:56;;;;;;;6.27;5.87;;;16.70;99.90;;;;;;4995013;28;20488;-66
2021/09/17 00:45:22;;;;;;;6.40;5.80;;;16.70;99.90;;;;;;4995897;28;20414;-65
2021/09/17 00:47:48;;;;;;;7.03;6.53;;;16.70;99.90;;;;;;4994508;28;20422;-66
2021/09/17 00:50:17;;;;;;;6.50;6.10;;;16.70;99.90;;;;;;4995595;28;20702;-65
2021/09/17 00:52:44;;;;;;;6.90;6.30;;;16.70;99.90;;;;;;4994861;28;20469;-66
2021/09/17 00:55:10;;;;;;;7.00;6.40;;;16.70;99.90;;;;;;4995794;28;20491;-66
2021/09/17 00:57:37;;;;;;;7.37;6.87;;;16.70;99.90;;;;;;4995573;28;20419;-70
2021/09/17 01:00:09;;;;;;;6.80;6.30;;;16.70;99.90;;;;;;4995290;28;20207;-66
2021/09/17 01:02:35;;;;;;;7.10;6.60;;;16.70;99.90;;;;;;4995548;28;20883;-66
2021/09/17 01:05:02;;;;;;;7.63;6.93;;;16.70;99.90;;;;;;4994428;28;20541;-66
2021/09/17 01:07:27;;;;;;;7.63;7.03;;;16.70;99.90;;;;;;4995460;28;20414;-66
2021/09/17 01:09:55;;;;;;;7.83;7.23;;;16.70;99.90;;;;;;4994523;28;20450;-65
2021/09/17 01:12:21;;;;;;;6.80;6.20;;;16.70;99.90;;;;;;4995348;28;20187;-66
2021/09/17 01:14:47;;;;;;;7.70;7.10;;;16.70;99.90;;;;;;4994490;28;20411;-65
2021/09/17 01:17:13;;;;;;;6.50;6.00;;;16.80;99.90;;;;;;4995313;28;20415;-66
2021/09/17 01:19:38;;;;;;;6.53;5.93;;;16.80;99.90;;;;;;4995037;28;20422;-70
2021/09/17 01:22:09;;;;;;;6.90;6.30;;;16.70;99.90;;;;;;4994495;28;20203;-66
2021/09/17 01:24:36;;;;;;;7.03;6.03;;;16.70;99.90;;;;;;4995065;28;20184;-65
2021/09/17 01:27:03;;;;;;;5.70;5.30;;;16.70;99.90;;;;;;4994134;28;20411;-65
2021/09/17 01:29:29;;;;;;;7.97;7.17;;;16.80;99.90;;;;;;4994747;28;20457;-65
2021/09/17 01:31:54;;;;;;;7.90;6.30;;;16.80;99.90;;;;;;4994292;28;20423;-66
2021/09/17 01:34:23;;;;;;;5.90;5.50;;;16.80;99.90;;;;;;4995003;28;20418;-65
2021/09/17 01:36:50;;;;;;;6.03;5.53;;;16.80;99.90;;;;;;4994146;28;20541;-66
2021/09/17 01:39:17;;;;;;;6.63;6.10;;;16.80;99.90;;;;;;4977430;28;20446;-65
2021/09/17 01:41:43;;;;;;;6.60;6.07;;;16.90;99.90;;;;;;4994130;28;20410;-71
2021/09/17 01:44:08;;;;;;;6.70;6.10;;;16.90;99.90;;;;;;4976647;28;20423;-66
2021/09/17 01:46:34;;;;;;;5.77;5.30;;;16.90;99.90;;;;;;4976877;28;20513;-66
2021/09/17 01:49:00;;;;;;;6.27;5.87;;;16.90;99.90;;;;;;4993908;28;20235;-65
2021/09/17 01:51:26;;;;;;;6.37;5.87;;;16.90;99.90;;;;;;4994734;28;20205;-65
2021/09/17 01:53:52;;;;;;;7.70;7.10;;;16.90;99.90;;;;;;4993886;28;20411;-66
2021/09/17 01:56:20;;;;;;;11.93;7.03;;;16.90;99.90;;;;;;4994698;28;20266;-65
2021/09/17 01:58:46;;;;;;;8.00;7.30;;;16.90;99.90;;;;;;4993558;28;20172;-66
2021/09/17 02:01:13;;;;;;;7.03;6.50;;;17.00;99.90;;;;;;4994516;28;20545;-65
2021/09/17 02:03:39;;;;;;;7.27;6.63;;;17.00;99.90;;;;;;4994188;28;20433;-66
2021/09/17 02:06:05;;;;;;;7.17;6.60;;;17.00;99.90;;;;;;4993016;28;20466;-66
2021/09/17 02:08:31;;;;;;;7.37;6.67;;;17.00;99.90;;;;;;4994361;28;20481;-66
2021/09/17 02:10:57;;;;;;;8.37;7.67;;;16.90;99.90;;;;;;4993399;28;20423;-66
2021/09/17 02:13:22;;;;;;;7.20;6.70;;;16.90;99.90;;;;;;4994011;28;20647;-66
2021/09/17 02:15:50;;;;;;;8.13;7.53;;;17.00;99.90;;;;;;4992948;28;20191;-65
2021/09/17 02:18:17;;;;;;;7.73;7.03;;;17.00;99.90;;;;;;4976623;28;20176;-66
2021/09/17 02:20:44;;;;;;;8.47;7.67;;;17.10;99.90;;;;;;4993457;28;20888;-70
2021/09/17 02:23:10;;;;;;;7.33;6.83;;;17.10;99.90;;;;;;4993971;28;20406;-66
2021/09/17 02:25:36;;;;;;;8.73;7.93;;;17.10;99.90;;;;;;4993924;28;20514;-65
2021/09/17 02:28:02;;;;;;;8.40;7.60;;;17.10;99.90;;;;;;4992467;28;20175;-66
2021/09/17 02:30:28;;;;;;;8.03;7.53;;;17.10;99.90;;;;;;4993905;28;20465;-65
2021/09/17 02:32:53;;;;;;;8.73;8.10;;;17.10;99.90;;;;;;4975510;28;20187;-66
2021/09/17 02:35:19;;;;;;;8.87;8.27;;;17.10;99.90;;;;;;4993996;28;20179;-65
2021/09/17 02:37:45;;;;;;;9.40;8.57;;;17.20;99.90;;;;;;4975907;28;20180;-70
2021/09/17 02:40:14;;;;;;;8.97;8.27;;;17.20;99.90;;;;;;4993633;28;20207;-66
2021/09/17 02:42:40;;;;;;;8.93;8.23;;;17.20;99.90;;;;;;4993732;28;20184;-65
2021/09/17 02:45:08;;;;;;;9.30;8.50;;;17.10;99.90;;;;;;4992947;28;20570;-66
2021/09/17 02:47:34;;;;;;;8.87;8.17;;;17.10;99.90;;;;;;4993622;28;20415;-66
2021/09/17 02:50:00;;;;;;;10.03;9.10;;;17.10;99.90;;;;;;4992102;28;20501;-65
2021/09/17 02:52:25;;;;;;;10.10;9.20;;;17.10;99.90;;;;;;4993060;28;20246;-66
2021/09/17 02:54:51;;;;;;;10.40;9.43;;;17.20;99.90;;;;;;4975335;28;20195;-67
2021/09/17 02:57:18;;;;;;;9.77;8.97;;;17.10;99.90;;;;;;4993513;28;20259;-66
2021/09/17 02:59:44;;;;;;;10.10;9.30;;;17.20;99.90;;;;;;4975908;28;20522;-70
2021/09/17 03:02:10;;;;;;;10.70;9.80;;;17.20;99.90;;;;;;4992761;28;20501;-66
2021/09/17 03:04:36;;;;;;;9.73;8.83;;;17.20;99.90;;;;;;4993084;28;20899;-65
2021/09/17 03:07:02;;;;;;;9.83;8.93;;;17.20;99.90;;;;;;4974823;28;20533;-66
2021/09/17 03:09:28;;;;;;;9.93;9.03;;;17.20;99.90;;;;;;4993227;28;20230;-66
2021/09/17 03:11:54;;;;;;;11.57;10.57;;;17.20;99.90;;;;;;4991917;28;20419;-66
2021/09/17 03:14:20;;;;;;;11.50;10.50;;;17.20;99.90;;;;;;4975961;28;20616;-67
2021/09/17 03:16:45;;;;;;;11.20;10.20;;;17.20;99.90;;;;;;4975585;28;20171;-73
2021/09/17 03:19:11;;;;;;;10.93;9.97;;;17.20;99.90;;;;;;4993040;28;20176;-67
2021/09/17 03:21:37;;;;;;;11.47;10.47;;;17.20;99.90;;;;;;4992912;28;20179;-67
2021/09/17 03:24:03;;;;;;;11.90;10.70;;;17.10;99.90;;;;;;4992444;28;20669;-67
2021/09/17 03:26:29;;;;;;;11.87;10.77;;;17.20;99.90;;;;;;4993366;28;20406;-67
2021/09/17 03:28:56;;;;;;;12.07;10.97;;;17.20;99.90;;;;;;4992759;28;20505;-67
2021/09/17 03:31:21;;;;;;;12.57;11.37;;;17.20;99.90;;;;;;4993323;28;20573;-67
2021/09/17 03:33:47;;;;;;;11.67;10.77;;;17.20;99.90;;;;;;4992508;28;20407;-67
2021/09/17 03:36:13;;;;;;;13.33;10.70;;;17.20;99.90;;;;;;4992496;28;20190;-67
2021/09/17 03:38:39;;;;;;;11.90;10.90;;;17.20;99.90;;;;;;4992852;28;20419;-67
2021/09/17 03:41:06;;;;;;;11.37;10.27;;;17.20;99.90;;;;;;4992038;28;20445;-67
2021/09/17 03:43:33;;;;;;;15.10;14.00;;;17.30;99.90;;;;;;4992626;28;20848;-67
2021/09/17 03:45:58;;;;;;;10.97;9.97;;;17.30;99.90;;;;;;4991918;28;20437;-67
2021/09/17 03:48:24;;;;;;;13.40;12.30;;;17.30;99.90;;;;;;4992846;28;20895;-67
2021/09/17 03:50:50;;;;;;;14.60;13.30;;;17.30;99.90;;;;;;4991952;28;20227;-73
2021/09/17 03:53:16;;;;;;;12.97;11.77;;;17.30;99.90;;;;;;4992396;28;20179;-67
2021/09/17 03:55:42;;;;;;;18.43;14.37;;;17.30;99.90;;;;;;4992496;28;20604;-67
2021/09/17 03:58:08;;;;;;;13.30;11.33;;;17.30;99.90;;;;;;4974223;28;20437;-67
2021/09/17 04:00:34;;;;;;;12.87;11.57;;;17.30;99.90;;;;;;4993480;28;20542;-67
2021/09/17 04:03:00;;;;;;;13.90;12.60;;;17.30;99.90;;;;;;4995908;28;20180;-67
2021/09/17 04:05:26;;;;;;;17.00;15.20;;;17.30;99.90;;;;;;4996513;28;20469;-66
2021/09/17 04:07:51;;;;;;;15.13;13.60;;;17.20;99.90;;;;;;4994997;28;20636;-70
2021/09/17 04:10:18;;;;;;;17.20;15.60;;;17.20;99.90;;;;;;4996030;28;20581;-66
2021/09/17 04:12:44;;;;;;;21.13;17.60;;;17.10;99.90;;;;;;4996603;28;20183;-66
2021/09/17 04:15:11;;;;;;;16.10;14.60;;;17.00;99.90;;;;;;4995701;28;20497;-66
2021/09/17 04:17:37;;;;;;;18.50;15.50;;;17.00;99.90;;;;;;4996267;28;20419;-66
2021/09/17 04:20:05;;;;;;;15.80;14.23;;;17.00;99.90;;;;;;4995346;28;20399;-66
2021/09/17 04:22:30;;;;;;;15.10;13.67;;;17.00;99.90;;;;;;4995990;28;20410;-66
2021/09/17 04:24:56;;;;;;;19.50;12.77;;;17.10;99.90;;;;;;4995267;28;20887;-66
2021/09/17 04:27:25;;;;;;;14.63;12.77;;;17.10;99.90;;;;;;4996061;28;20179;-66
2021/09/17 04:29:51;;;;;;;15.63;12.67;;;17.20;99.90;;;;;;4995751;28;20212;-71
2021/09/17 04:32:17;;;;;;;13.67;12.27;;;17.20;99.90;;;;;;4995957;28;20403;-66
2021/09/17 04:34:43;;;;;;;12.73;11.53;;;17.20;99.90;;;;;;4995994;28;20426;-66
2021/09/17 04:37:09;;;;;;;14.83;13.33;;;17.20;99.90;;;;;;4995567;28;20422;-66
2021/09/17 04:39:35;;;;;;;15.33;13.70;;;17.20;99.90;;;;;;4996033;28;20183;-66
2021/09/17 04:42:00;;;;;;;19.03;13.97;;;17.30;99.90;;;;;;4995202;28;20180;-66
2021/09/17 04:44:26;;;;;;;17.03;13.50;;;17.30;99.90;;;;;;4995950;28;20489;-66
2021/09/17 04:46:52;;;;;;;15.90;14.23;;;17.30;99.90;;;;;;4996965;28;20190;-71
2021/09/17 04:49:18;;;;;;;16.10;14.50;;;17.30;99.90;;;;;;5015498;28;20631;-66
2021/09/17 04:51:43;;;;;;;15.10;13.67;;;17.30;99.90;;;;;;5015461;28;20667;-66
2021/09/17 04:54:10;;;;;;;12.93;11.63;;;17.30;99.90;;;;;;5014664;28;20207;-66
2021/09/17 04:56:38;;;;;;;14.10;12.73;;;17.30;99.90;;;;;;4997673;28;20532;-66
2021/09/17 04:59:04;;;;;;;15.60;14.07;;;17.30;99.90;;;;;;5014423;28;20422;-66
2021/09/17 05:01:30;;;;;;;14.73;13.07;;;17.40;99.90;;;;;;5000704;28;20859;-66
2021/09/17 05:03:55;;;;;;;16.60;15.10;;;17.30;99.90;;;;;;4995041;28;20493;-66
2021/09/17 05:06:21;;;;;;;17.60;15.10;;;17.40;99.90;;;;;;4995571;28;20491;-66
2021/09/17 05:08:47;;;;;;;13.60;12.20;;;17.30;99.90;;;;;;4995495;28;20196;-66
2021/09/17 05:11:13;;;;;;;16.47;15.07;;;17.30;99.90;;;;;;4994605;28;20172;-66
2021/09/17 05:13:39;;;;;;;15.80;14.33;;;17.30;99.90;;;;;;4994758;28;20190;-66
2021/09/17 05:16:05;;;;;;;14.03;12.63;;;17.30;99.90;;;;;;4977354;28;20182;-66
2021/09/17 05:18:30;;;;;;;14.07;12.70;;;17.30;99.90;;;;;;4995079;28;20230;-66
2021/09/17 05:20:56;;;;;;;13.97;12.60;;;17.40;99.90;;;;;;4993724;28;20519;-67
2021/09/17 05:23:22;;;;;;;14.47;13.17;;;17.30;99.90;;;;;;4995237;28;20168;-66
2021/09/17 05:25:48;;;;;;;16.53;13.73;;;17.30;99.90;;;;;;4995142;28;20189;-66
2021/09/17 05:28:13;;;;;;;18.10;13.70;;;17.40;99.90;;;;;;4994300;28;20415;-66
2021/09/17 05:30:39;;;;;;;16.67;14.90;;;17.30;99.90;;;;;;4994730;28;20199;-66
2021/09/17 05:33:05;;;;;;;14.83;13.43;;;17.40;99.90;;;;;;4993681;28;20191;-66
2021/09/17 05:35:31;;;;;;;15.87;14.47;;;17.40;99.90;;;;;;4994824;28;20172;-66
2021/09/17 05:37:57;;;;;;;16.00;14.50;;;17.40;99.90;;;;;;4993853;28;20785;-70
2021/09/17 05:40:23;;;;;;;15.43;13.80;;;17.40;99.90;;;;;;4994952;28;20430;-66
2021/09/17 05:42:49;;;;;;;15.87;14.47;;;17.40;99.90;;;;;;4994684;28;20444;-66
2021/09/17 05:45:14;;;;;;;17.50;15.77;;;17.40;99.90;;;;;;4992524;28;20695;-66
2021/09/17 05:47:44;;;;;;;16.80;14.63;;;17.40;99.90;;;;;;4994378;28;20554;-65
2021/09/17 05:50:11;;;;;;;17.83;15.83;;;17.40;99.90;;;;;;4992820;28;20671;-66
2021/09/17 05:52:37;;;;;;;15.50;13.87;;;17.50;99.90;;;;;;4993065;28;20444;-66
2021/09/17 05:55:04;;;;;;;14.67;13.27;;;17.50;99.90;;;;;;4992428;28;20454;-66
2021/09/17 05:57:30;;;;;;;18.37;16.87;;;17.50;99.90;;;;;;4994308;28;20415;-66
2021/09/17 05:59:56;;;;;;;15.50;14.10;;;17.50;99.90;;;;;;4993845;28;20426;-71
2021/09/17 06:02:22;;;;;;;17.10;15.40;;;17.50;99.90;;;;;;4994096;28;20234;-66
2021/09/17 06:04:48;;;;;;;19.97;18.07;;;17.60;99.90;;;;;;4993690;28;20458;-67
2021/09/17 06:07:14;;;;;;;19.33;17.33;;;17.60;99.90;;;;;;4975717;28;20941;-66
2021/09/17 06:09:40;;;;;;;19.83;17.83;;;17.60;99.90;;;;;;4993852;28;20203;-66
2021/09/17 06:12:06;;;;;;;24.33;19.97;;;17.60;99.90;;;;;;4993270;28;20958;-66
2021/09/17 06:14:32;;;;;;;24.83;18.80;;;17.70;99.90;;;;;;4993604;28;20279;-66
2021/09/17 06:16:57;;;;;;;24.33;19.63;;;17.70;99.90;;;;;;4993506;28;20438;-71
2021/09/17 06:19:23;;;;;;;25.87;19.03;;;17.80;99.90;;;;;;4993502;28;20538;-67
2021/09/17 06:21:49;;;;;;;21.37;19.27;;;17.80;99.90;;;;;;4993313;28;20532;-68
2021/09/17 06:24:16;;;;;;;21.63;19.30;;;17.80;99.90;;;;;;4992170;28;20419;-70
2021/09/17 06:26:41;;;;;;;24.50;22.10;;;17.80;99.90;;;;;;4993714;28;20255;-70
2021/09/17 06:29:08;;;;;;;23.37;20.97;;;17.90;99.90;;;;;;4993140;28;21030;-70
2021/09/17 06:31:35;;;;;;;26.27;23.43;;;18.10;99.90;;;;;;4994280;28;20415;-71
2021/09/17 06:34:02;;;;;;;25.13;22.07;;;18.10;99.90;;;;;;4992957;28;20823;-71
2021/09/17 06:36:28;;;;;;;27.43;23.90;;;18.30;99.90;;;;;;4993628;28;20427;-70
2021/09/17 06:38:55;;;;;;;31.10;22.60;;;18.30;99.90;;;;;;4994258;28;20414;-69
2021/09/17 06:41:21;;;;;;;27.50;23.80;;;18.30;99.90;;;;;;4993619;28;20199;-71
2021/09/17 06:43:47;;;;;;;24.87;21.30;;;18.30;99.90;;;;;;4993636;28;20755;-68
2021/09/17 06:46:20;;;;;;;27.00;24.13;;;18.20;99.90;;;;;;5109949;27;20849;-67
2021/09/17 06:48:46;;;;;;;30.43;24.83;;;18.20;99.90;;;;;;5090108;28;20429;-68
2021/09/17 06:51:12;;;;;;;27.67;22.80;;;18.10;99.90;;;;;;5089268;28;20172;-68
2021/09/17 06:53:37;;;;;;;28.17;22.80;;;18.00;99.90;;;;;;5089359;28;20540;-68
2021/09/17 06:56:04;;;;;;;36.43;25.03;;;18.00;99.90;;;;;;5076546;28;20185;-67
2021/09/17 06:58:33;;;;;;;33.00;24.53;;;17.90;99.90;;;;;;5069825;28;20161;-67
2021/09/17 07:01:00;;;;;;;30.27;24.67;;;17.90;99.90;;;;;;5069172;28;20411;-68
2021/09/17 07:03:27;;;;;;;28.33;24.60;;;17.90;99.90;;;;;;5069796;28;20431;-67
2021/09/17 07:05:53;;;;;;;35.57;24.97;;;17.90;99.90;;;;;;5069610;28;20538;-67
2021/09/17 07:08:19;;;;;;;29.80;25.30;;;17.90;99.90;;;;;;5070272;28;20823;-68
2021/09/17 07:10:46;;;;;;;34.97;24.97;;;17.80;99.90;;;;;;5071625;28;20442;-68
2021/09/17 07:13:12;;;;;;;29.57;26.43;;;17.80;99.90;;;;;;5089086;28;20434;-67
2021/09/17 07:15:38;;;;;;;32.10;27.73;;;17.80;99.90;;;;;;5089882;28;20519;-67
2021/09/17 07:18:06;;;;;;;32.23;26.27;;;17.80;99.90;;;;;;5089099;28;20398;-68
2021/09/17 07:20:32;;;;;;;31.50;24.90;;;17.90;99.90;;;;;;5069635;28;20419;-68
2021/09/17 07:22:58;;;;;;;27.53;24.53;;;17.90;99.90;;;;;;5069220;28;20745;-67
2021/09/17 07:25:24;;;;;;;32.43;24.30;;;18.00;99.90;;;;;;5070244;28;20465;-67
2021/09/17 07:27:50;;;;;;;27.83;24.73;;;17.90;99.90;;;;;;5069304;28;20399;-67
2021/09/17 07:30:16;;;;;;;32.67;26.60;;;18.00;99.90;;;;;;5066477;28;20505;-67
2021/09/17 07:32:43;;;;;;;28.97;25.40;;;18.00;99.90;;;;;;5089319;28;20203;-68
2021/09/17 07:35:09;;;;;;;30.87;26.40;;;18.00;99.90;;;;;;5088386;28;20862;-68
2021/09/17 07:37:35;;;;;;;32.27;25.00;;;18.10;99.90;;;;;;5081421;28;20538;-69
2021/09/17 07:40:01;;;;;;;32.20;24.70;;;18.10;99.90;;;;;;5069973;28;20975;-68
2021/09/17 07:42:27;;;;;;;30.70;24.03;;;18.10;99.90;;;;;;5077800;28;20899;-68
2021/09/17 07:44:53;;;;;;;30.73;24.73;;;18.10;99.90;;;;;;5060613;28;20478;-68
2021/09/17 07:47:18;;;;;;;32.07;24.60;;;18.10;99.90;;;;;;5048158;28;20181;-67
2021/09/17 07:49:44;;;;;;;28.93;24.40;;;18.20;99.90;;;;;;5049595;28;20548;-68
2021/09/17 07:52:10;;;;;;;32.60;27.27;;;18.20;99.90;;;;;;5064097;28;20177;-67
2021/09/17 07:54:36;;;;;;;29.37;26.00;;;18.30;99.90;;;;;;5055525;28;20415;-67
2021/09/17 07:57:03;;;;;;;34.20;25.47;;;18.40;99.90;;;;;;5044387;28;20174;-72
2021/09/17 07:59:29;;;;;;;34.60;27.10;;;18.40;99.90;;;;;;5035107;28;20538;-67
2021/09/17 08:01:55;;;;;;;32.13;26.53;;;18.50;99.90;;;;;;5035356;28;20405;-67
2021/09/17 08:04:20;;;;;;;36.47;29.10;;;18.50;99.90;;;;;;5034658;28;20766;-67
2021/09/17 08:06:46;;;;;;;33.80;27.30;;;18.70;99.90;;;;;;5035011;28;20175;-67
2021/09/17 08:09:12;;;;;;;39.17;28.60;;;18.70;99.90;;;;;;5035034;28;20579;-68
2021/09/17 08:11:38;;;;;;;35.33;28.37;;;18.80;99.90;;;;;;5039450;28;20181;-68
2021/09/17 08:14:04;;;;;;;35.00;26.70;;;18.90;99.90;;;;;;5034275;28;20807;-68
2021/09/17 08:16:30;;;;;;;37.57;27.13;;;18.90;99.90;;;;;;5035447;28;20428;-68
2021/09/17 08:18:56;;;;;;;33.37;27.80;;;19.00;99.90;;;;;;5035304;28;20185;-70
2021/09/17 08:21:22;;;;;;;31.20;26.67;;;19.00;99.90;;;;;;5034248;28;20806;-68
2021/09/17 08:23:48;;;;;;;35.03;27.90;;;19.00;99.90;;;;;;5039140;28;20190;-68
2021/09/17 08:26:13;;;;;;;29.57;25.20;;;19.10;99.90;;;;;;5034719;28;20202;-68
2021/09/17 08:28:39;;;;;;;32.63;25.37;;;19.20;99.90;;;;;;5034737;28;20182;-68
2021/09/17 08:31:05;;;;;;;30.03;25.47;;;19.30;99.90;;;;;;5034380;28;20589;-70
2021/09/17 08:33:32;;;;;;;24.20;20.23;;;19.40;99.90;;;;;;5034624;28;20197;-72
2021/09/17 08:35:58;;;;;;;25.10;20.27;;;19.50;99.90;;;;;;5019518;28;20979;-68
2021/09/17 08:38:24;;;;;;;23.20;20.10;;;19.60;99.90;;;;;;5034212;28;20974;-68
2021/09/17 08:40:52;;;;;;;23.83;21.33;;;19.70;99.90;;;;;;5034627;28;20405;-68
2021/09/17 08:43:19;;;;;;;25.50;20.53;;;19.80;99.90;;;;;;5033937;28;20174;-68
2021/09/17 08:45:45;;;;;;;23.87;21.00;;;19.90;99.90;;;;;;5033180;28;20889;-68
2021/09/17 08:48:12;;;;;;;24.87;21.83;;;19.90;99.90;;;;;;5032927;28;20449;-69
2021/09/17 08:50:38;;;;;;;25.87;23.17;;;20.00;99.90;;;;;;5015831;28;20174;-68
2021/09/17 08:53:04;;;;;;;28.53;23.60;;;20.10;99.90;;;;;;5033182;28;20467;-77
2021/09/17 08:55:30;;;;;;;27.43;24.17;;;20.20;99.90;;;;;;5033636;28;20179;-68
2021/09/17 08:57:56;;;;;;;24.57;21.60;;;20.20;99.90;;;;;;5039508;28;20531;-68
2021/09/17 09:00:29;;;;;;;27.70;22.67;;;20.30;99.90;;;;;;5032726;28;20994;-67
2021/09/17 09:03:01;;;;;;;26.47;23.70;;;20.40;99.90;;;;;;5042204;28;20174;-68
2021/09/17 09:05:35;;;;;;;27.70;24.83;;;20.40;99.90;;;;;;5014915;28;20461;-67
2021/09/17 09:08:02;;;;;;;25.50;22.73;;;20.50;99.90;;;;;;5032851;28;20783;-67
2021/09/17 09:10:28;;;;;;;27.70;24.13;;;20.50;99.90;;;;;;5032044;28;20437;-68
2021/09/17 09:12:57;;;;;;;26.13;22.07;;;20.60;99.90;;;;;;5033228;28;20424;-67
2021/09/17 09:15:29;;;;;;;26.23;23.40;;;20.60;99.90;;;;;;5032585;28;20186;-68
2021/09/17 09:18:01;;;;;;;25.43;22.70;;;20.70;99.90;;;;;;5033713;28;20405;-68
2021/09/17 09:20:30;;;;;;;24.40;21.50;;;20.80;99.90;;;;;;5032155;28;20412;-68
2021/09/17 09:23:10;;;;;;;23.80;21.13;;;20.80;99.90;;;;;;5036163;28;20423;-68
2021/09/17 09:25:57;;;;;;;24.37;21.77;;;20.80;99.90;;;;;;5023043;28;20440;-68
2021/09/17 09:28:35;;;;;;;26.83;21.50;;;20.90;99.90;;;;;;5032884;28;20875;-68
2021/09/17 09:31:04;;;;;;;26.97;23.50;;;21.10;99.90;;;;;;5037075;28;20462;-69
2021/09/17 09:33:39;;;;;;;28.23;23.90;;;21.10;99.90;;;;;;5032112;28;20803;-68
2021/09/17 09:36:14;;;;;;;26.60;23.90;;;21.20;99.90;;;;;;5033650;28;20416;-68
2021/09/17 09:38:47;;;;;;;22.77;20.40;;;21.10;99.90;;;;;;5036928;28;20431;-68
2021/09/17 09:41:18;;;;;;;24.60;22.07;;;21.20;99.90;;;;;;5032213;28;20893;-68
2021/09/17 09:44:16;;;;;;;25.20;22.50;;;21.20;99.90;;;;;;5033120;28;20396;-68
2021/09/17 09:46:46;;;;;;;20.90;18.40;;;21.20;99.90;;;;;;5033095;28;20919;-68
2021/09/17 09:49:13;;;;;;;22.90;20.17;;;21.20;99.90;;;;;;5034836;28;20511;-69
2021/09/17 09:51:53;;;;;;;24.40;21.83;;;21.20;99.90;;;;;;5034306;28;20421;-68
2021/09/17 09:54:23;;;;;;;24.13;21.63;;;21.20;99.90;;;;;;5036880;28;20427;-68
2021/09/17 09:56:49;;;;;;;22.23;19.93;;;21.20;99.90;;;;;;5052687;28;20404;-67
2021/09/17 09:59:19;;;;;;;24.03;21.63;;;21.20;99.90;;;;;;5051900;28;20495;-67
2021/09/17 10:01:45;;;;;;;21.53;18.90;;;21.20;99.90;;;;;;5049011;28;20432;-67
2021/09/17 10:04:12;;;;;;;23.50;21.00;;;21.30;99.90;;;;;;5032248;28;20566;-67
2021/09/17 10:06:39;;;;;;;23.00;19.43;;;21.30;99.90;;;;;;5032547;28;20794;-67
2021/09/17 10:09:07;;;;;;;21.83;19.30;;;21.40;99.90;;;;;;5044898;28;20423;-67
2021/09/17 10:11:34;;;;;;;27.30;20.83;;;21.40;99.90;;;;;;5051028;28;20416;-68
2021/09/17 10:14:02;;;;;;;24.73;21.80;;;21.40;99.90;;;;;;5052359;28;20896;-67
2021/09/17 10:16:30;;;;;;;25.07;21.40;;;21.40;99.90;;;;;;5052159;28;20846;-67
2021/09/17 10:18:56;;;;;;;22.10;19.70;;;21.40;99.90;;;;;;5052424;28;20447;-68
2021/09/17 10:21:51;;;;;;;22.50;20.30;;;21.40;99.90;;;;;;5050280;28;20428;-69
2021/09/17 10:24:25;;;;;;;24.10;21.63;;;21.40;99.90;;;;;;5051946;28;20411;-69
2021/09/17 10:27:22;;;;;;;23.97;21.67;;;21.30;99.90;;;;;;5035116;28;20432;-67
2021/09/17 10:29:54;;;;;;;23.50;21.23;;;21.30;99.90;;;;;;5042321;28;20432;-68
2021/09/17 10:32:47;;;;;;;22.83;20.53;;;21.30;99.90;;;;;;5040499;28;20976;-67
2021/09/17 10:35:17;;;;;;;22.30;20.00;;;21.30;99.90;;;;;;5031620;28;20459;-70
2021/09/17 10:37:55;;;;;;;22.90;20.57;;;21.30;99.90;;;;;;5041752;28;20507;-69
2021/09/17 10:40:39;;;;;;;25.43;22.83;;;21.30;99.30;;;;;;5051257;28;20498;-69
2021/09/17 10:43:08;;;;;;;23.53;21.20;;;21.30;99.40;;;;;;5052096;28;20408;-69
2021/09/17 10:45:55;;;;;;;28.13;22.33;;;21.30;99.90;;;;;;5051161;28;20475;-70
2021/09/17 10:48:22;;;;;;;26.70;22.20;;;21.30;99.90;;;;;;5047377;28;20781;-69
2021/09/17 10:50:49;;;;;;;24.17;21.77;;;21.30;99.90;;;;;;5043183;28;20429;-69
2021/09/17 10:53:40;;;;;;;24.60;22.00;;;21.40;99.90;;;;;;5042845;28;20436;-69
2021/09/17 10:56:15;;;;;;;24.03;21.47;;;21.40;99.60;;;;;;5051326;28;20500;-69
2021/09/17 10:58:44;;;;;;;23.23;20.47;;;21.50;99.90;;;;;;5045513;28;20426;-68
2021/09/17 11:01:11;;;;;;;25.97;21.53;;;21.60;99.90;;;;;;5035574;28;20434;-69
2021/09/17 11:03:45;;;;;;;25.53;21.87;;;21.60;99.90;;;;;;5047105;28;20447;-69
2021/09/17 11:06:37;;;;;;;26.03;21.60;;;21.80;99.90;;;;;;5040378;28;20544;-69
2021/09/17 11:09:04;;;;;;;25.80;22.90;;;21.90;99.40;;;;;;5036070;28;20435;-70
2021/09/17 11:11:42;;;;;;;22.77;20.57;;;21.90;99.40;;;;;;5038644;28;20440;-68
2021/09/17 11:14:14;;;;;;;24.67;21.97;;;21.90;98.90;;;;;;5041720;28;20432;-68
2021/09/17 11:16:46;;;;;;;27.67;21.50;;;21.90;98.90;;;;;;5050625;28;20421;-69
2021/09/17 11:19:18;;;;;;;26.90;24.20;;;21.80;99.30;;;;;;5040419;28;20891;-78
2021/09/17 11:21:49;;;;;;;16.77;14.97;;;21.80;99.60;;;;;;5032812;28;20742;-71
2021/09/17 11:24:26;;;;;;;24.00;21.50;;;21.80;99.90;;;;;;5042567;28;20504;-71
2021/09/17 11:26:54;;;;;;;23.50;19.80;;;21.80;99.20;;;;;;5032049;28;20912;-71
2021/09/17 11:29:22;;;;;;;20.27;18.20;;;21.90;99.90;;;;;;5031555;28;20409;-71
2021/09/17 11:31:52;;;;;;;20.67;18.50;;;21.90;98.90;;;;;;5033657;28;20397;-71
2021/09/17 11:34:23;;;;;;;17.93;16.07;;;21.90;98.90;;;;;;5035145;28;20433;-71
2021/09/17 11:37:00;;;;;;;16.37;14.60;;;21.80;98.70;;;;;;5051620;28;20420;-70
2021/09/17 11:39:31;;;;;;;18.80;16.17;;;21.90;99.20;;;;;;5034419;28;20423;-70
2021/09/17 11:41:59;;;;;;;18.07;16.27;;;21.80;98.90;;;;;;5048984;28;20414;-69
2021/09/17 11:44:28;;;;;;;17.73;15.90;;;21.80;99.70;;;;;;5034626;28;20828;-69
2021/09/17 11:46:55;;;;;;;18.80;16.70;;;21.80;98.40;;;;;;5035796;28;20551;-69
2021/09/17 11:49:29;;;;;;;19.07;17.13;;;21.80;98.40;;;;;;5052341;28;20431;-69
2021/09/17 11:51:59;;;;;;;20.23;17.73;;;21.80;98.50;;;;;;5033858;28;20636;-69
2021/09/17 11:54:25;;;;;;;18.53;16.63;;;21.70;99.00;;;;;;5054611;28;20419;-69
2021/09/17 11:57:11;;;;;;;18.83;17.03;;;21.70;98.80;;;;;;5055400;28;20400;-69
2021/09/17 11:59:46;;;;;;;17.70;16.03;;;21.70;99.00;;;;;;5035635;28;20198;-69
2021/09/17 12:02:19;;;;;;;17.50;15.70;;;21.70;98.80;;;;;;5040617;28;20485;-69
2021/09/17 12:05:01;;;;;;;17.30;15.50;;;21.70;99.20;;;;;;5039624;28;20456;-69
2021/09/17 12:07:28;;;;;;;16.37;14.77;;;21.70;99.20;;;;;;5045472;28;20777;-69
2021/09/17 12:09:55;;;;;;;16.20;14.50;;;21.70;99.40;;;;;;5041885;28;20420;-69
2021/09/17 12:12:32;;;;;;;16.07;14.57;;;21.80;99.40;;;;;;5038997;28;20814;-69
2021/09/17 12:15:00;;;;;;;15.40;14.00;;;21.80;98.80;;;;;;5049795;28;20424;-69
2021/09/17 12:17:26;;;;;;;15.27;13.67;;;21.80;98.50;;;;;;5053530;28;20408;-70
2021/09/17 12:20:00;;;;;;;14.40;13.10;;;21.90;98.10;;;;;;5035853;28;20428;-70
2021/09/17 12:22:34;;;;;;;16.57;15.07;;;21.90;96.80;;;;;;5042982;28;20424;-70
2021/09/17 12:25:13;;;;;;;15.60;14.00;;;22.00;97.60;;;;;;5053431;28;20853;-70
2021/09/17 12:27:41;;;;;;;15.73;14.23;;;22.10;97.20;;;;;;5054228;28;20420;-70
2021/09/17 12:30:12;;;;;;;16.93;15.33;;;22.10;97.10;;;;;;5037024;28;20427;-70
2021/09/17 12:32:39;;;;;;;17.30;15.60;;;22.20;96.00;;;;;;5054227;28;20428;-70
2021/09/17 12:35:11;;;;;;;16.13;14.57;;;22.20;96.10;;;;;;5038756;28;20516;-69